Time;durP1;ratioP1;P1;durP2;ratioP2;P2;SDS_P1;SDS_P2;PMS_P1;PMS_P2;Temp;Humidity;BMP_temperature;BMP_pressure;BME280_temperature;BME280_humidity;BME280_pressure;Samples;Min_cycle;Max_cycle;Signal;HPM_P1;HPM_P2
2021/08/06 00:00:59;;;;;;;7.20;6.50;;;17.90;99.90;;;;;;4938183;29;20023;-75
2021/08/06 00:03:25;;;;;;;9.23;6.05;;;17.90;99.90;;;;;;4955237;29;20063;-74
2021/08/06 00:05:54;;;;;;;6.55;5.90;;;18.00;99.90;;;;;;4954942;29;20050;-72
2021/08/06 00:08:20;;;;;;;6.57;5.97;;;18.00;99.90;;;;;;4955360;29;20023;-73
2021/08/06 00:10:46;;;;;;;10.30;6.38;;;18.00;99.90;;;;;;4955192;29;20058;-70
2021/08/06 00:13:11;;;;;;;7.10;6.05;;;18.00;99.90;;;;;;4954932;29;20472;-71
2021/08/06 00:15:37;;;;;;;6.72;6.03;;;18.00;99.90;;;;;;4938140;29;20035;-73
2021/08/06 00:18:03;;;;;;;5.78;5.28;;;18.00;99.90;;;;;;4955635;29;20019;-72
2021/08/06 00:20:29;;;;;;;6.22;5.63;;;18.00;99.90;;;;;;4937059;29;20027;-76
2021/08/06 00:22:54;;;;;;;7.43;5.75;;;18.00;99.90;;;;;;4958585;28;20110;-74
2021/08/06 00:25:20;;;;;;;7.35;5.65;;;18.00;99.90;;;;;;4954587;29;20031;-72
2021/08/06 00:27:46;;;;;;;6.45;5.85;;;18.00;99.90;;;;;;4955396;29;20082;-73
2021/08/06 00:30:11;;;;;;;6.20;5.60;;;18.00;99.90;;;;;;4937450;29;20039;-73
2021/08/06 00:32:37;;;;;;;6.30;5.13;;;18.00;99.90;;;;;;4937591;29;20027;-73
2021/08/06 00:35:03;;;;;;;5.50;4.95;;;18.00;99.90;;;;;;4954834;29;20031;-73
2021/08/06 00:37:28;;;;;;;5.38;4.85;;;18.00;99.90;;;;;;4937854;29;20106;-73
2021/08/06 00:39:54;;;;;;;6.63;4.93;;;17.90;99.90;;;;;;4954455;28;20039;-73
2021/08/06 00:42:20;;;;;;;7.05;4.90;;;17.90;99.90;;;;;;4954280;29;20031;-76
2021/08/06 00:44:45;;;;;;;4.30;3.88;;;17.80;99.90;;;;;;4953550;29;20452;-74
2021/08/06 00:47:11;;;;;;;4.90;4.40;;;17.80;99.90;;;;;;4952952;29;20110;-73
2021/08/06 00:49:37;;;;;;;6.18;4.15;;;17.80;99.90;;;;;;4954116;29;20070;-73
2021/08/06 00:52:04;;;;;;;4.28;3.83;;;17.70;99.90;;;;;;4947383;29;20020;-71
2021/08/06 00:54:29;;;;;;;5.15;3.85;;;17.70;99.90;;;;;;4952980;29;20035;-72
2021/08/06 00:56:55;;;;;;;5.30;4.18;;;17.70;99.90;;;;;;4953546;29;20023;-73
2021/08/06 00:59:21;;;;;;;4.55;4.15;;;17.80;99.90;;;;;;4933647;28;20023;-76
2021/08/06 01:01:53;;;;;;;4.13;3.78;;;17.80;99.90;;;;;;4955218;28;20055;-76
2021/08/06 01:04:41;;;;;;;6.95;3.35;;;17.80;99.90;;;;;;4973395;28;20026;-73
2021/08/06 01:07:13;;;;;;;4.35;3.83;;;17.80;99.90;;;;;;4956670;28;20388;-73
2021/08/06 01:09:48;;;;;;;3.88;3.58;;;17.70;99.90;;;;;;4973366;28;20026;-75
2021/08/06 01:12:24;;;;;;;4.10;3.17;;;17.70;99.90;;;;;;4973915;28;20109;-73
2021/08/06 01:14:50;;;;;;;9.73;3.95;;;17.80;99.90;;;;;;4973462;28;20027;-75
2021/08/06 01:17:17;;;;;;;5.00;4.20;;;17.80;99.90;;;;;;4973706;28;20030;-73
2021/08/06 01:20:09;;;;;;;6.35;4.03;;;17.80;99.90;;;;;;4974021;28;20472;-80
2021/08/06 01:22:44;;;;;;;7.65;3.90;;;17.90;99.90;;;;;;4966589;28;20039;-74
2021/08/06 01:25:15;;;;;;;4.47;3.60;;;17.90;99.90;;;;;;4974094;28;20431;-72
2021/08/06 01:27:42;;;;;;;;;;;17.90;99.90;;;;;;4974376;28;20031;-73
2021/08/06 01:30:10;;;;;;;4.53;3.40;;;17.90;99.90;;;;;;4973152;28;20003;-72
2021/08/06 01:32:36;;;;;;;4.95;4.03;;;17.90;99.90;;;;;;4974402;28;20025;-72
2021/08/06 01:35:04;;;;;;;3.63;3.25;;;17.90;99.90;;;;;;4973887;28;20107;-77
2021/08/06 01:37:29;;;;;;;4.47;3.58;;;17.90;99.90;;;;;;4972520;28;20050;-73
2021/08/06 01:39:55;;;;;;;5.20;3.75;;;18.00;99.90;;;;;;4973926;28;20534;-72
2021/08/06 01:43:04;;;;;;;5.45;3.50;;;18.00;99.90;;;;;;4973553;28;20027;-72
2021/08/06 01:45:37;;;;;;;6.15;3.80;;;18.00;99.90;;;;;;4973340;28;20027;-77
2021/08/06 01:48:05;;;;;;;3.47;3.17;;;18.00;99.90;;;;;;4956775;28;20026;-72
2021/08/06 01:50:34;;;;;;;4.85;3.50;;;18.00;99.90;;;;;;4972811;28;20558;-73
2021/08/06 01:53:03;;;;;;;5.03;3.88;;;18.00;99.90;;;;;;4976756;28;20055;-72
2021/08/06 01:55:33;;;;;;;5.05;3.25;;;18.00;99.90;;;;;;4976727;28;20427;-72
2021/08/06 01:58:01;;;;;;;3.60;3.30;;;18.00;99.90;;;;;;4959209;28;20054;-73
2021/08/06 02:00:27;;;;;;;5.30;3.83;;;18.10;99.90;;;;;;4976602;28;20022;-75
2021/08/06 02:02:53;;;;;;;3.70;3.40;;;18.10;99.90;;;;;;4959634;28;20509;-74
2021/08/06 02:05:21;;;;;;;4.50;3.22;;;18.10;99.90;;;;;;4976351;28;20046;-74
2021/08/06 02:07:47;;;;;;;3.95;3.55;;;18.10;99.90;;;;;;4977076;28;20073;-74
2021/08/06 02:10:14;;;;;;;3.53;3.22;;;18.10;99.90;;;;;;4976665;28;20487;-74
2021/08/06 02:12:39;;;;;;;4.70;3.05;;;18.10;99.90;;;;;;4959082;28;20030;-74
2021/08/06 02:15:07;;;;;;;4.43;3.17;;;18.10;99.90;;;;;;4959561;28;20114;-75
2021/08/06 02:17:34;;;;;;;2.83;2.63;;;18.10;99.90;;;;;;4959177;28;20062;-73
2021/08/06 02:20:01;;;;;;;4.40;3.10;;;18.10;99.90;;;;;;4975962;28;20026;-74
2021/08/06 02:22:28;;;;;;;3.45;3.15;;;18.00;99.90;;;;;;4958823;28;20065;-75
2021/08/06 02:24:54;;;;;;;4.32;3.25;;;18.00;99.90;;;;;;4958610;28;20427;-78
2021/08/06 02:27:22;;;;;;;5.15;2.85;;;18.10;99.90;;;;;;4976561;28;20022;-74
2021/08/06 02:29:50;;;;;;;9.05;3.85;;;18.10;99.90;;;;;;4976317;28;20097;-72
2021/08/06 02:32:15;;;;;;;5.05;3.47;;;18.10;99.90;;;;;;4975797;28;20030;-73
2021/08/06 02:34:41;;;;;;;4.25;3.22;;;18.00;99.90;;;;;;4977065;28;20027;-75
2021/08/06 02:37:07;;;;;;;4.97;3.55;;;18.00;99.90;;;;;;4976725;28;20038;-73
2021/08/06 02:39:34;;;;;;;4.65;3.33;;;18.00;99.90;;;;;;4975379;28;20478;-74
2021/08/06 02:42:01;;;;;;;9.48;3.40;;;18.00;99.90;;;;;;4976403;28;20098;-73
2021/08/06 02:44:27;;;;;;;6.78;3.53;;;18.00;99.90;;;;;;4975987;28;20057;-72
2021/08/06 02:46:53;;;;;;;4.07;3.45;;;18.00;99.90;;;;;;4975531;28;20440;-72
2021/08/06 02:49:18;;;;;;;3.53;3.13;;;18.00;99.90;;;;;;4976036;28;20054;-76
2021/08/06 02:51:44;;;;;;;3.47;3.03;;;18.00;99.90;;;;;;4976299;28;20062;-73
2021/08/06 02:54:10;;;;;;;3.47;3.10;;;18.00;99.90;;;;;;4958244;28;20395;-73
2021/08/06 02:56:36;;;;;;;4.50;3.55;;;18.00;99.90;;;;;;4958532;28;20122;-77
2021/08/06 02:59:01;;;;;;;4.10;3.15;;;18.00;99.90;;;;;;4958845;28;20027;-73
2021/08/06 03:01:27;;;;;;;4.53;3.60;;;18.00;99.90;;;;;;4974750;28;20031;-74
2021/08/06 03:03:52;;;;;;;5.50;4.03;;;18.00;99.90;;;;;;4957787;28;20026;-74
2021/08/06 03:06:18;;;;;;;4.03;3.63;;;18.00;99.90;;;;;;4975826;28;20038;-74
2021/08/06 03:08:44;;;;;;;7.75;3.80;;;18.10;99.90;;;;;;4975349;28;20092;-72
2021/08/06 03:11:09;;;;;;;3.20;2.90;;;18.00;99.90;;;;;;4975786;28;20031;-74
2021/08/06 03:13:35;;;;;;;4.05;3.03;;;18.10;99.90;;;;;;4975618;28;20023;-74
2021/08/06 03:16:00;;;;;;;3.70;3.40;;;18.10;99.90;;;;;;4975327;28;20037;-73
2021/08/06 03:18:26;;;;;;;3.83;3.30;;;18.10;99.90;;;;;;4958248;28;20081;-73
2021/08/06 03:20:52;;;;;;;5.13;3.50;;;18.10;99.90;;;;;;4958453;28;20058;-73
2021/08/06 03:23:17;;;;;;;3.58;3.28;;;18.10;99.90;;;;;;4975020;28;20109;-73
2021/08/06 03:25:43;;;;;;;6.60;3.42;;;18.10;99.90;;;;;;4975390;28;20547;-73
2021/08/06 03:28:08;;;;;;;4.30;3.03;;;18.10;99.90;;;;;;4975190;28;20475;-73
2021/08/06 03:30:34;;;;;;;3.33;2.78;;;18.10;99.90;;;;;;4975561;28;20047;-73
2021/08/06 03:32:59;;;;;;;4.22;3.25;;;18.10;99.90;;;;;;4975406;28;20503;-72
2021/08/06 03:35:25;;;;;;;2.90;2.70;;;18.10;99.90;;;;;;4974340;28;20085;-72
2021/08/06 03:37:51;;;;;;;3.35;3.08;;;18.10;99.90;;;;;;4975381;28;20027;-73
2021/08/06 03:40:17;;;;;;;3.30;2.85;;;18.20;99.90;;;;;;4957820;28;20026;-72
2021/08/06 03:42:43;;;;;;;3.70;2.70;;;18.10;99.90;;;;;;4974717;28;20414;-72
2021/08/06 03:45:09;;;;;;;4.18;2.90;;;18.20;99.90;;;;;;4975319;28;20027;-74
2021/08/06 03:47:35;;;;;;;3.33;2.80;;;18.20;99.90;;;;;;4975076;28;20054;-76
2021/08/06 03:50:01;;;;;;;4.85;3.60;;;18.10;99.90;;;;;;4974634;28;20125;-75
2021/08/06 03:52:27;;;;;;;4.28;3.08;;;18.10;99.90;;;;;;4974762;28;20023;-74
2021/08/06 03:54:52;;;;;;;7.22;3.83;;;18.20;99.90;;;;;;4975604;28;20029;-74
2021/08/06 03:57:18;;;;;;;4.70;3.40;;;18.20;99.90;;;;;;4974169;28;20034;-73
2021/08/06 03:59:43;;;;;;;4.85;3.20;;;18.20;99.90;;;;;;4974763;28;20045;-74
2021/08/06 04:02:09;;;;;;;3.90;3.53;;;18.10;99.90;;;;;;4954287;29;20127;-73
2021/08/06 04:04:34;;;;;;;5.32;3.47;;;18.20;99.90;;;;;;4954666;29;20064;-72
2021/08/06 04:07:00;;;;;;;4.07;3.17;;;18.10;99.90;;;;;;4954454;29;20387;-73
2021/08/06 04:09:25;;;;;;;4.38;3.10;;;18.10;99.90;;;;;;4955226;29;20027;-73
2021/08/06 04:11:51;;;;;;;3.90;3.20;;;18.10;99.90;;;;;;4955303;29;20031;-76
2021/08/06 04:14:17;;;;;;;3.28;2.97;;;18.10;99.90;;;;;;4953888;29;20143;-72
2021/08/06 04:16:42;;;;;;;3.22;2.90;;;18.10;99.90;;;;;;4954620;28;20019;-72
2021/08/06 04:19:08;;;;;;;3.17;2.95;;;18.10;99.90;;;;;;4954746;29;20034;-72
2021/08/06 04:21:33;;;;;;;2.72;2.53;;;18.10;99.90;;;;;;4955011;29;20468;-74
2021/08/06 04:23:59;;;;;;;2.55;2.35;;;18.10;99.90;;;;;;4954225;29;20027;-75
2021/08/06 04:26:24;;;;;;;2.70;2.50;;;18.00;99.90;;;;;;4953135;29;20050;-73
2021/08/06 04:28:50;;;;;;;3.03;2.78;;;18.00;99.90;;;;;;4955224;28;20479;-72
2021/08/06 04:31:16;;;;;;;3.78;2.55;;;18.00;99.90;;;;;;4954890;29;20046;-74
2021/08/06 04:33:41;;;;;;;3.08;2.60;;;18.00;99.90;;;;;;4954645;29;20023;-74
2021/08/06 04:36:07;;;;;;;2.95;2.45;;;18.00;99.90;;;;;;4955279;29;20027;-72
2021/08/06 04:38:32;;;;;;;3.08;2.53;;;18.00;99.90;;;;;;4954173;29;20023;-72
2021/08/06 04:40:58;;;;;;;3.17;2.40;;;18.00;99.90;;;;;;4953822;29;20555;-72
2021/08/06 04:43:24;;;;;;;2.70;2.33;;;18.00;99.90;;;;;;4954848;28;20031;-72
2021/08/06 04:45:49;;;;;;;2.95;2.60;;;18.00;99.90;;;;;;4954671;29;20472;-72
2021/08/06 04:48:22;;;;;;;3.20;2.60;;;18.00;99.90;;;;;;4954805;29;20028;-72
2021/08/06 04:50:49;;;;;;;3.55;2.45;;;18.00;99.90;;;;;;4955214;29;20114;-72
2021/08/06 04:53:14;;;;;;;2.95;2.65;;;18.00;99.90;;;;;;4953985;29;20468;-79
2021/08/06 04:55:40;;;;;;;2.72;2.53;;;18.00;99.90;;;;;;4955047;29;20034;-72
2021/08/06 04:58:06;;;;;;;2.88;2.67;;;18.10;99.90;;;;;;4953810;29;20045;-77
2021/08/06 05:00:32;;;;;;;4.07;2.38;;;18.00;99.90;;;;;;4952154;29;20027;-73
2021/08/06 05:02:57;;;;;;;2.40;2.20;;;18.10;99.90;;;;;;4938265;29;20054;-76
2021/08/06 05:05:23;;;;;;;2.75;2.13;;;18.10;99.90;;;;;;4935198;29;20114;-71
2021/08/06 05:07:50;;;;;;;2.97;2.67;;;18.10;99.90;;;;;;4934817;29;20024;-72
2021/08/06 05:10:16;;;;;;;2.97;2.67;;;18.10;99.90;;;;;;4935281;29;20471;-71
2021/08/06 05:12:42;;;;;;;2.90;2.60;;;18.20;99.90;;;;;;4936696;29;20024;-71
2021/08/06 05:15:08;;;;;;;3.38;2.90;;;18.30;99.90;;;;;;4936042;29;20497;-72
2021/08/06 05:17:34;;;;;;;2.58;2.38;;;18.30;99.90;;;;;;4933055;29;20124;-71
2021/08/06 05:19:59;;;;;;;4.18;2.40;;;18.40;99.90;;;;;;4934364;29;20507;-71
2021/08/06 05:22:25;;;;;;;3.42;2.53;;;18.40;99.90;;;;;;4933397;29;20027;-72
2021/08/06 05:24:51;;;;;;;5.13;2.40;;;18.40;99.90;;;;;;4934314;29;20237;-72
2021/08/06 05:27:16;;;;;;;3.78;2.70;;;18.50;99.90;;;;;;4944397;29;20047;-72
2021/08/06 05:29:42;;;;;;;3.00;2.50;;;18.60;99.90;;;;;;4957855;29;20032;-71
2021/08/06 05:32:07;;;;;;;3.20;2.60;;;18.60;99.90;;;;;;4944457;29;20024;-72
2021/08/06 05:34:33;;;;;;;2.35;2.13;;;18.70;99.90;;;;;;4937668;29;20492;-72
2021/08/06 05:36:58;;;;;;;3.22;2.92;;;18.70;99.90;;;;;;4938655;29;20028;-71
2021/08/06 05:39:24;;;;;;;5.00;3.53;;;18.70;99.90;;;;;;4937803;29;20039;-72
2021/08/06 05:41:50;;;;;;;5.38;2.58;;;18.70;99.90;;;;;;4938338;29;20036;-72
2021/08/06 05:44:15;;;;;;;3.80;2.28;;;18.70;99.90;;;;;;4938800;29;20075;-74
2021/08/06 05:46:41;;;;;;;3.05;2.50;;;18.70;99.90;;;;;;4939026;29;20059;-73
2021/08/06 05:49:06;;;;;;;4.05;2.78;;;18.70;99.90;;;;;;4938369;29;20031;-73
2021/08/06 05:51:32;;;;;;;3.83;2.03;;;18.70;99.90;;;;;;4939345;29;20038;-76
2021/08/06 05:53:57;;;;;;;2.63;2.40;;;18.80;99.90;;;;;;4938784;29;20031;-73
2021/08/06 05:56:23;;;;;;;3.20;2.90;;;18.80;99.90;;;;;;4938927;29;20031;-76
2021/08/06 05:58:48;;;;;;;5.63;4.65;;;18.80;99.90;;;;;;4940946;29;20027;-78
2021/08/06 06:01:14;;;;;;;3.85;3.40;;;18.80;99.90;;;;;;4936743;29;20050;-75
2021/08/06 06:03:39;;;;;;;2.92;2.63;;;18.80;99.90;;;;;;4947674;29;20035;-74
2021/08/06 06:06:06;;;;;;;3.20;2.90;;;18.80;99.90;;;;;;4956934;29;20476;-75
2021/08/06 06:08:32;;;;;;;3.22;2.92;;;18.70;99.90;;;;;;4972563;28;20106;-73
2021/08/06 06:11:07;;;;;;;3.13;2.88;;;18.70;99.90;;;;;;4956230;28;20117;-74
2021/08/06 06:13:32;;;;;;;4.38;2.90;;;18.70;99.90;;;;;;4957408;29;20038;-72
2021/08/06 06:15:58;;;;;;;3.22;2.90;;;18.70;99.90;;;;;;4957607;29;20027;-76
2021/08/06 06:18:24;;;;;;;2.67;2.47;;;18.70;99.90;;;;;;4939786;29;20023;-74
2021/08/06 06:20:51;;;;;;;3.95;2.70;;;18.90;99.90;;;;;;4957431;29;20369;-73
2021/08/06 06:23:17;;;;;;;3.00;2.53;;;19.00;99.90;;;;;;4943315;28;20030;-73
2021/08/06 06:25:42;;;;;;;5.00;2.80;;;19.10;99.90;;;;;;4976441;28;20027;-71
2021/08/06 06:28:08;;;;;;;3.20;2.90;;;19.00;99.90;;;;;;4976783;28;20107;-72
2021/08/06 06:30:35;;;;;;;3.33;2.50;;;19.00;99.90;;;;;;4956878;28;20094;-71
2021/08/06 06:33:03;;;;;;;3.78;2.78;;;19.00;99.90;;;;;;4946900;29;20031;-71
2021/08/06 06:35:29;;;;;;;2.75;2.30;;;19.00;99.90;;;;;;4958529;28;20028;-72
2021/08/06 06:37:54;;;;;;;2.15;2.05;;;19.00;99.90;;;;;;4954478;28;20524;-72
2021/08/06 06:40:21;;;;;;;3.33;2.53;;;19.00;99.90;;;;;;4949189;29;20118;-73
2021/08/06 06:42:47;;;;;;;2.33;2.00;;;19.10;99.90;;;;;;4955994;29;20428;-73
2021/08/06 06:45:14;;;;;;;2.30;2.00;;;19.10;99.90;;;;;;4942644;29;20042;-72
2021/08/06 06:47:45;;;;;;;2.47;2.28;;;19.10;99.90;;;;;;4956488;28;20037;-73
2021/08/06 06:50:13;;;;;;;2.45;2.25;;;19.30;99.90;;;;;;4959092;28;20440;-75
2021/08/06 06:52:43;;;;;;;2.05;1.90;;;19.30;99.90;;;;;;4956270;29;20523;-73
2021/08/06 06:55:09;;;;;;;4.20;3.80;;;19.20;99.90;;;;;;4944478;28;20026;-71
2021/08/06 06:57:49;;;;;;;2.60;2.40;;;19.20;99.90;;;;;;4976092;28;20027;-73
2021/08/06 07:00:15;;;;;;;2.42;2.10;;;19.20;99.90;;;;;;4973428;28;20038;-73
2021/08/06 07:02:41;;;;;;;2.17;1.95;;;19.30;99.90;;;;;;4958533;28;20047;-72
2021/08/06 07:05:08;;;;;;;2.70;1.90;;;19.50;99.90;;;;;;4975930;28;20046;-72
2021/08/06 07:07:34;;;;;;;2.10;1.90;;;19.80;99.90;;;;;;4961524;28;20024;-74
2021/08/06 07:09:59;;;;;;;4.35;2.20;;;20.00;99.90;;;;;;4938511;29;20130;-73
2021/08/06 07:12:25;;;;;;;2.00;1.90;;;20.10;99.90;;;;;;4938777;29;20023;-74
2021/08/06 07:14:50;;;;;;;4.28;2.47;;;20.30;99.90;;;;;;4955941;29;20031;-72
2021/08/06 07:17:16;;;;;;;2.45;2.25;;;20.50;99.90;;;;;;4956464;29;20062;-73
2021/08/06 07:19:41;;;;;;;4.15;2.75;;;20.70;99.90;;;;;;4956376;29;20027;-72
2021/08/06 07:22:07;;;;;;;3.08;2.42;;;20.90;99.90;;;;;;4956089;29;20027;-73
2021/08/06 07:24:33;;;;;;;5.05;2.70;;;21.00;99.90;;;;;;4960211;28;20037;-75
2021/08/06 07:26:58;;;;;;;2.55;2.35;;;21.10;99.90;;;;;;4965287;28;20094;-72
2021/08/06 07:29:24;;;;;;;2.85;2.65;;;21.10;99.90;;;;;;4938521;29;20208;-72
2021/08/06 07:31:49;;;;;;;3.35;2.65;;;21.20;99.90;;;;;;4939015;29;20427;-73
2021/08/06 07:34:15;;;;;;;6.25;3.30;;;21.30;99.90;;;;;;4955199;29;20417;-71
2021/08/06 07:36:42;;;;;;;5.30;3.72;;;21.30;99.90;;;;;;4956186;28;20384;-73
2021/08/06 07:39:08;;;;;;;3.50;3.20;;;21.20;99.90;;;;;;4937680;29;20063;-75
2021/08/06 07:41:33;;;;;;;5.75;3.50;;;21.10;99.90;;;;;;4954896;28;20027;-73
2021/08/06 07:43:59;;;;;;;3.72;3.42;;;20.90;99.90;;;;;;4938737;29;20110;-73
2021/08/06 07:46:25;;;;;;;3.72;3.42;;;20.80;99.90;;;;;;4956641;28;20031;-74
2021/08/06 07:48:50;;;;;;;3.55;3.25;;;20.70;99.90;;;;;;4938353;29;20023;-75
2021/08/06 07:51:16;;;;;;;3.85;3.50;;;20.80;99.90;;;;;;4971106;28;20108;-74
2021/08/06 07:53:41;;;;;;;3.17;2.80;;;20.80;99.90;;;;;;4974682;28;20027;-73
2021/08/06 07:56:07;;;;;;;3.42;3.13;;;20.80;99.90;;;;;;4974536;28;20038;-78
2021/08/06 07:58:33;;;;;;;4.45;3.65;;;20.80;99.90;;;;;;4957646;28;20023;-80
2021/08/06 08:00:59;;;;;;;3.85;3.17;;;20.70;99.90;;;;;;4957944;28;20019;-75
2021/08/06 08:03:25;;;;;;;4.53;3.47;;;20.90;99.90;;;;;;4946204;29;20054;-74
2021/08/06 08:05:50;;;;;;;3.83;3.50;;;21.00;99.90;;;;;;4955602;29;20027;-75
2021/08/06 08:08:16;;;;;;;4.53;3.85;;;21.10;99.90;;;;;;4956054;28;20023;-75
2021/08/06 08:10:41;;;;;;;4.22;3.83;;;21.30;99.90;;;;;;4974072;28;20349;-77
2021/08/06 08:13:07;;;;;;;4.40;4.00;;;21.60;99.90;;;;;;4974942;28;20034;-81
2021/08/06 08:15:33;;;;;;;5.05;4.65;;;21.70;99.90;;;;;;4974230;28;20078;-78
2021/08/06 08:17:59;;;;;;;5.57;4.07;;;21.80;99.90;;;;;;4937150;29;20383;-77
2021/08/06 08:20:25;;;;;;;3.72;3.42;;;21.80;99.90;;;;;;4955526;29;20035;-88
2021/08/06 08:22:51;;;;;;;5.00;4.22;;;21.90;99.90;;;;;;4956298;29;20062;-82
2021/08/06 08:25:17;;;;;;;4.55;3.97;;;22.00;99.90;;;;;;4955796;28;20070;-75
2021/08/06 08:27:42;;;;;;;4.90;4.10;;;22.00;99.90;;;;;;4973226;28;20066;-75
2021/08/06 08:30:09;;;;;;;3.95;3.55;;;22.00;99.90;;;;;;4956410;28;20034;-73
2021/08/06 08:32:35;;;;;;;5.57;3.53;;;21.90;99.90;;;;;;4948564;28;20346;-74
2021/08/06 08:35:01;;;;;;;5.30;3.75;;;21.90;99.90;;;;;;4953971;29;20055;-72
2021/08/06 08:37:27;;;;;;;4.40;3.83;;;21.80;99.90;;;;;;4960678;28;20365;-75
2021/08/06 08:39:52;;;;;;;4.88;3.92;;;21.80;99.90;;;;;;4973462;28;20081;-75
2021/08/06 08:42:21;;;;;;;5.07;3.45;;;21.80;99.90;;;;;;4957828;28;20058;-76
2021/08/06 08:44:47;;;;;;;7.53;4.10;;;21.90;99.90;;;;;;4941615;28;20030;-76
2021/08/06 08:47:14;;;;;;;6.53;3.90;;;21.60;99.90;;;;;;4954992;29;20029;-74
2021/08/06 08:49:39;;;;;;;7.97;4.35;;;21.30;99.90;;;;;;4954885;28;20067;-77
2021/08/06 08:52:05;;;;;;;6.57;4.53;;;21.00;99.90;;;;;;4944440;29;20058;-73
2021/08/06 08:54:31;;;;;;;6.38;4.53;;;20.70;99.90;;;;;;4954724;29;20027;-74
2021/08/06 08:56:57;;;;;;;6.15;3.72;;;20.70;99.90;;;;;;4955106;29;20019;-74
2021/08/06 08:59:23;;;;;;;10.63;4.43;;;20.70;99.90;;;;;;4937491;29;20109;-74
2021/08/06 09:01:48;;;;;;;8.20;3.92;;;20.90;99.90;;;;;;4938555;29;20070;-73
2021/08/06 09:04:23;;;;;;;5.20;3.67;;;21.40;99.90;;;;;;4959350;28;20063;-75
2021/08/06 09:06:49;;;;;;;4.95;3.33;;;21.70;99.90;;;;;;4967077;28;20027;-73
2021/08/06 09:09:20;;;;;;;4.72;3.13;;;22.10;99.90;;;;;;4968184;28;20058;-74
2021/08/06 09:11:46;;;;;;;4.80;3.13;;;22.30;99.90;;;;;;4945788;28;20077;-74
2021/08/06 09:14:25;;;;;;;5.50;3.25;;;22.30;99.90;;;;;;4946004;29;20020;-73
2021/08/06 09:16:58;;;;;;;3.75;2.90;;;22.30;99.90;;;;;;4941633;29;20551;-77
2021/08/06 09:19:25;;;;;;;6.55;3.55;;;22.30;99.90;;;;;;4943532;28;20403;-74
2021/08/06 09:21:50;;;;;;;4.93;3.65;;;22.40;99.90;;;;;;4954432;29;20054;-92
2021/08/06 09:24:16;;;;;;;5.00;3.08;;;22.50;99.90;;;;;;4958616;29;20491;-76
2021/08/06 09:26:44;;;;;;;4.30;2.60;;;22.60;99.90;;;;;;4957481;29;20042;-75
2021/08/06 09:29:19;;;;;;;6.15;3.38;;;22.60;99.90;;;;;;4953189;28;20019;-73
2021/08/06 09:31:57;;;;;;;4.95;2.80;;;22.70;99.90;;;;;;4960522;28;20035;-74
2021/08/06 09:34:35;;;;;;;5.30;3.30;;;22.70;99.90;;;;;;4976758;28;20061;-73
2021/08/06 09:37:08;;;;;;;4.38;2.85;;;22.60;99.90;;;;;;4945436;29;20042;-74
2021/08/06 09:39:51;;;;;;;3.03;2.53;;;22.50;99.90;;;;;;4940850;29;20027;-75
2021/08/06 09:42:25;;;;;;;3.35;2.83;;;22.60;99.90;;;;;;4940022;29;20110;-75
2021/08/06 09:45:06;;;;;;;5.18;2.50;;;22.60;99.90;;;;;;4941304;29;20089;-76
2021/08/06 09:47:33;;;;;;;4.68;2.35;;;22.60;99.90;;;;;;4940500;28;20105;-84
2021/08/06 09:50:06;;;;;;;4.00;2.70;;;22.50;99.90;;;;;;4944365;29;20034;-83
2021/08/06 09:52:43;;;;;;;4.15;2.53;;;22.40;99.90;;;;;;4957233;29;20028;-75
2021/08/06 09:55:11;;;;;;;5.88;2.92;;;22.40;99.90;;;;;;4958871;28;20031;-75
2021/08/06 09:57:43;;;;;;;3.85;2.70;;;22.40;99.90;;;;;;4957950;29;20102;-74
2021/08/06 10:00:14;;;;;;;4.18;2.50;;;22.40;99.90;;;;;;4940803;29;20035;-74
2021/08/06 10:02:42;;;;;;;5.15;2.28;;;22.50;99.90;;;;;;4943852;28;20459;-74
2021/08/06 10:05:17;;;;;;;4.18;2.20;;;22.80;99.90;;;;;;4959941;28;20458;-74
2021/08/06 10:07:51;;;;;;;2.75;1.70;;;23.10;99.90;;;;;;4976886;28;20179;-74
2021/08/06 10:10:35;;;;;;;2.40;1.92;;;23.10;99.90;;;;;;4955973;29;20038;-75
2021/08/06 10:13:02;;;;;;;2.38;2.03;;;23.00;99.90;;;;;;4940438;29;20118;-79
2021/08/06 10:15:29;;;;;;;3.55;2.33;;;22.80;99.90;;;;;;4942517;29;20046;-75
2021/08/06 10:17:56;;;;;;;2.25;1.90;;;22.60;99.90;;;;;;4935364;28;20031;-77
2021/08/06 10:20:25;;;;;;;4.07;2.22;;;22.30;99.90;;;;;;4959478;28;20353;-77
2021/08/06 10:22:51;;;;;;;3.75;2.20;;;22.10;99.90;;;;;;4959475;28;20030;-89
2021/08/06 10:25:22;;;;;;;3.40;2.00;;;21.90;99.90;;;;;;4971724;28;20098;-82
2021/08/06 10:27:49;;;;;;;4.43;2.80;;;21.90;99.90;;;;;;4955052;28;20031;-75
2021/08/06 10:30:30;;;;;;;3.47;2.40;;;21.90;99.90;;;;;;4950381;28;20122;-75
2021/08/06 10:33:22;;;;;;;5.15;2.38;;;21.90;99.90;;;;;;4939980;29;20047;-76
2021/08/06 10:36:04;;;;;;;3.92;2.20;;;22.00;99.90;;;;;;4958534;28;20034;-75
2021/08/06 10:38:38;;;;;;;;;;;22.00;99.90;;;;;;4939965;29;20030;-74
2021/08/06 10:41:10;;;;;;;3.40;1.75;;;22.00;99.90;;;;;;4957151;29;19913;-78
2021/08/06 10:43:39;;;;;;;3.38;1.95;;;22.10;99.90;;;;;;4939236;29;20066;-77
2021/08/06 10:46:05;;;;;;;3.45;2.13;;;22.20;99.90;;;;;;4939607;29;20480;-74
2021/08/06 10:48:30;;;;;;;4.00;1.95;;;22.20;99.90;;;;;;4951967;28;20046;-77
2021/08/06 10:51:15;;;;;;;6.30;2.17;;;22.20;99.90;;;;;;4940438;29;20050;-74
2021/08/06 10:53:42;;;;;;;2.88;2.20;;;22.30;99.90;;;;;;4958752;28;20101;-74
2021/08/06 10:56:21;;;;;;;3.10;2.00;;;22.60;99.90;;;;;;4962243;28;20118;-74
2021/08/06 10:58:52;;;;;;;4.65;2.45;;;22.90;99.90;;;;;;4940360;29;20027;-73
2021/08/06 11:01:27;;;;;;;4.05;1.85;;;23.30;99.90;;;;;;4942207;28;20383;-74
2021/08/06 11:03:57;;;;;;;2.08;1.70;;;23.60;99.90;;;;;;4959477;28;20043;-74
2021/08/06 11:06:46;;;;;;;4.18;1.95;;;23.90;99.90;;;;;;4955604;29;20026;-74
2021/08/06 11:09:29;;;;;;;1.98;1.55;;;24.20;99.90;;;;;;4957187;28;20510;-75
2021/08/06 11:11:58;;;;;;;3.92;2.08;;;24.50;99.90;;;;;;4949287;29;20058;-75
2021/08/06 11:14:33;;;;;;;5.03;2.10;;;24.60;99.90;;;;;;4938641;29;20023;-72
2021/08/06 11:16:59;;;;;;;87.82;8.98;;;24.40;99.80;;;;;;4941225;28;20407;-73
2021/08/06 11:19:53;;;;;;;5.43;2.13;;;24.40;99.90;;;;;;4938762;29;20028;-83
2021/08/06 11:22:28;;;;;;;3.63;1.60;;;24.50;99.90;;;;;;4939058;29;20510;-83
2021/08/06 11:24:58;;;;;;;1.55;1.20;;;24.40;99.90;;;;;;4938824;29;20464;-80
2021/08/06 11:27:42;;;;;;;4.13;1.77;;;23.90;99.90;;;;;;4953855;28;20033;-79
2021/08/06 11:30:17;;;;;;;3.22;1.30;;;23.50;99.90;;;;;;4961560;28;20043;-79
2021/08/06 11:32:58;;;;;;;2.47;1.50;;;23.20;99.90;;;;;;4958563;28;20101;-80
2021/08/06 11:35:24;;;;;;;2.47;1.20;;;23.00;99.90;;;;;;4957581;28;20062;-79
2021/08/06 11:37:58;;;;;;;2.15;1.02;;;22.80;99.90;;;;;;4975693;28;20035;-79
2021/08/06 11:40:26;;;;;;;2.55;1.50;;;22.80;99.90;;;;;;4955861;28;20031;-80
2021/08/06 11:42:52;;;;;;;3.58;1.85;;;22.90;99.90;;;;;;4958024;28;20126;-78
2021/08/06 11:45:27;;;;;;;4.32;1.42;;;23.40;99.90;;;;;;4952518;29;20034;-82
2021/08/06 11:47:58;;;;;;;2.58;1.58;;;23.60;99.90;;;;;;4938190;29;20027;-74
2021/08/06 11:50:49;;;;;;;2.97;1.63;;;23.90;99.90;;;;;;4955614;29;20074;-74
2021/08/06 11:53:17;;;;;;;2.20;1.52;;;24.00;99.30;;;;;;4955672;29;20027;-74
2021/08/06 11:55:45;;;;;;;2.20;1.67;;;24.20;99.40;;;;;;4938401;28;20058;-74
2021/08/06 11:58:11;;;;;;;4.68;1.75;;;24.40;99.10;;;;;;4971434;28;20026;-72
2021/08/06 12:00:37;;;;;;;2.25;1.30;;;24.60;98.20;;;;;;4957457;28;20369;-74
2021/08/06 12:03:08;;;;;;;2.90;1.75;;;24.80;97.90;;;;;;4948448;29;20404;-70
2021/08/06 12:05:35;;;;;;;2.25;1.40;;;24.90;97.90;;;;;;4939244;29;20034;-70
2021/08/06 12:08:17;;;;;;;2.38;1.70;;;24.90;97.70;;;;;;4958493;28;20046;-71
2021/08/06 12:10:45;;;;;;;1.98;1.30;;;24.90;97.30;;;;;;4953789;28;20404;-73
2021/08/06 12:13:12;;;;;;;1.70;1.40;;;25.00;96.80;;;;;;4958799;28;20039;-74
2021/08/06 12:15:39;;;;;;;2.78;1.48;;;24.80;96.80;;;;;;4956826;28;20388;-73
2021/08/06 12:18:19;;;;;;;2.25;1.38;;;24.40;97.00;;;;;;4938265;29;20077;-74
2021/08/06 12:20:53;;;;;;;4.27;1.47;;;23.90;96.90;;;;;;4955267;29;20066;-74
2021/08/06 12:23:21;;;;;;;1.90;1.27;;;23.60;97.50;;;;;;4927077;29;20286;-74
2021/08/06 12:26:10;;;;;;;1.10;1.00;;;23.70;97.70;;;;;;4936438;29;20485;-72
2021/08/06 12:28:39;;;;;;;2.88;1.52;;;23.90;98.10;;;;;;4935817;29;20024;-73
2021/08/06 12:31:10;;;;;;;2.83;1.42;;;23.90;98.40;;;;;;4933700;29;20036;-73
2021/08/06 12:33:36;;;;;;;1.30;1.20;;;23.80;98.80;;;;;;4934564;29;20035;-73
2021/08/06 12:36:17;;;;;;;1.95;1.30;;;23.40;99.90;;;;;;4935055;29;20031;-73
2021/08/06 12:38:44;;;;;;;2.17;1.60;;;23.20;99.90;;;;;;4952437;28;20023;-73
2021/08/06 12:41:23;;;;;;;2.33;1.70;;;23.40;99.90;;;;;;4972308;28;20477;-72
2021/08/06 12:44:17;;;;;;;1.40;1.10;;;23.80;99.90;;;;;;4937011;29;20388;-77
2021/08/06 12:47:05;;;;;;;0.93;0.90;;;24.20;99.90;;;;;;4938135;29;20038;-79
2021/08/06 12:49:37;;;;;;;2.72;1.10;;;24.40;99.90;;;;;;4937046;29;20027;-78
2021/08/06 12:52:05;;;;;;;3.55;1.05;;;24.30;99.90;;;;;;4944958;28;20082;-77
2021/08/06 12:54:37;;;;;;;1.23;0.95;;;24.30;99.90;;;;;;4956552;28;20045;-78